sensor_id;sensor_type;location;lat;lon;timestamp;P1;durP1;ratioP1;P2;durP2;ratioP2
5791;SDS011;2922;53.482;10.006;2023-07-30T00:02:01;8.00;;;5.13;;
5791;SDS011;2922;53.482;10.006;2023-07-30T00:04:27;9.37;;;5.70;;
5791;SDS011;2922;53.482;10.006;2023-07-30T00:06:52;11.93;;;5.30;;
5791;SDS011;2922;53.482;10.006;2023-07-30T00:09:18;8.43;;;5.30;;
5791;SDS011;2922;53.482;10.006;2023-07-30T00:11:43;8.20;;;5.27;;
5791;SDS011;2922;53.482;10.006;2023-07-30T00:14:09;7.10;;;5.60;;
5791;SDS011;2922;53.482;10.006;2023-07-30T00:16:34;9.85;;;5.50;;
5791;SDS011;2922;53.482;10.006;2023-07-30T00:19:00;6.50;;;4.47;;
5791;SDS011;2922;53.482;10.006;2023-07-30T00:21:25;7.17;;;4.67;;
5791;SDS011;2922;53.482;10.006;2023-07-30T00:23:51;5.83;;;4.40;;
5791;SDS011;2922;53.482;10.006;2023-07-30T00:26:16;5.70;;;4.30;;
5791;SDS011;2922;53.482;10.006;2023-07-30T00:28:42;5.23;;;3.97;;
5791;SDS011;2922;53.482;10.006;2023-07-30T00:31:08;5.20;;;3.40;;
5791;SDS011;2922;53.482;10.006;2023-07-30T00:33:33;6.90;;;4.23;;
5791;SDS011;2922;53.482;10.006;2023-07-30T00:35:59;7.27;;;3.90;;
5791;SDS011;2922;53.482;10.006;2023-07-30T00:38:24;6.50;;;3.90;;
5791;SDS011;2922;53.482;10.006;2023-07-30T00:40:50;5.00;;;3.13;;
5791;SDS011;2922;53.482;10.006;2023-07-30T00:43:15;6.00;;;3.50;;
5791;SDS011;2922;53.482;10.006;2023-07-30T00:45:42;5.30;;;3.50;;
5791;SDS011;2922;53.482;10.006;2023-07-30T00:48:10;4.20;;;3.53;;
5791;SDS011;2922;53.482;10.006;2023-07-30T00:50:38;4.70;;;3.37;;
5791;SDS011;2922;53.482;10.006;2023-07-30T00:53:04;3.77;;;3.40;;
5791;SDS011;2922;53.482;10.006;2023-07-30T00:55:29;5.97;;;3.67;;
5791;SDS011;2922;53.482;10.006;2023-07-30T00:57:56;5.67;;;4.03;;
5791;SDS011;2922;53.482;10.006;2023-07-30T01:00:22;4.47;;;3.70;;
5791;SDS011;2922;53.482;10.006;2023-07-30T01:02:50;5.90;;;3.80;;
5791;SDS011;2922;53.482;10.006;2023-07-30T01:05:16;3.83;;;3.33;;
5791;SDS011;2922;53.482;10.006;2023-07-30T01:07:42;6.43;;;3.70;;
5791;SDS011;2922;53.482;10.006;2023-07-30T01:10:07;5.60;;;3.73;;
5791;SDS011;2922;53.482;10.006;2023-07-30T01:12:33;6.80;;;4.30;;
5791;SDS011;2922;53.482;10.006;2023-07-30T01:15:00;4.43;;;3.80;;
5791;SDS011;2922;53.482;10.006;2023-07-30T01:17:27;6.10;;;4.33;;
5791;SDS011;2922;53.482;10.006;2023-07-30T01:19:53;4.30;;;3.90;;
5791;SDS011;2922;53.482;10.006;2023-07-30T01:22:22;10.20;;;5.60;;
5791;SDS011;2922;53.482;10.006;2023-07-30T01:24:48;7.60;;;4.07;;
5791;SDS011;2922;53.482;10.006;2023-07-30T01:27:22;4.20;;;3.70;;
5791;SDS011;2922;53.482;10.006;2023-07-30T01:32:43;7.80;;;4.50;;
5791;SDS011;2922;53.482;10.006;2023-07-30T01:35:14;5.07;;;4.27;;
5791;SDS011;2922;53.482;10.006;2023-07-30T01:37:41;9.20;;;4.60;;
5791;SDS011;2922;53.482;10.006;2023-07-30T01:40:07;6.20;;;4.57;;
5791;SDS011;2922;53.482;10.006;2023-07-30T01:42:34;7.93;;;4.97;;
5791;SDS011;2922;53.482;10.006;2023-07-30T01:45:00;7.63;;;4.33;;
5791;SDS011;2922;53.482;10.006;2023-07-30T01:47:25;9.27;;;5.17;;
5791;SDS011;2922;53.482;10.006;2023-07-30T01:49:51;5.93;;;4.60;;
5791;SDS011;2922;53.482;10.006;2023-07-30T01:52:16;6.13;;;4.97;;
5791;SDS011;2922;53.482;10.006;2023-07-30T01:54:42;8.20;;;4.77;;
5791;SDS011;2922;53.482;10.006;2023-07-30T01:57:08;8.50;;;5.10;;
5791;SDS011;2922;53.482;10.006;2023-07-30T01:59:33;9.67;;;4.90;;
5791;SDS011;2922;53.482;10.006;2023-07-30T02:01:59;5.57;;;4.90;;
5791;SDS011;2922;53.482;10.006;2023-07-30T02:04:24;6.80;;;5.10;;
5791;SDS011;2922;53.482;10.006;2023-07-30T02:06:50;7.80;;;5.20;;
5791;SDS011;2922;53.482;10.006;2023-07-30T02:09:15;5.60;;;5.00;;
5791;SDS011;2922;53.482;10.006;2023-07-30T02:11:41;6.80;;;5.33;;
5791;SDS011;2922;53.482;10.006;2023-07-30T02:14:07;6.63;;;5.30;;
5791;SDS011;2922;53.482;10.006;2023-07-30T02:16:34;7.40;;;5.13;;
5791;SDS011;2922;53.482;10.006;2023-07-30T02:18:59;6.30;;;5.50;;
5791;SDS011;2922;53.482;10.006;2023-07-30T02:21:25;11.37;;;5.40;;
5791;SDS011;2922;53.482;10.006;2023-07-30T02:23:51;9.67;;;5.77;;
5791;SDS011;2922;53.482;10.006;2023-07-30T02:26:17;9.33;;;5.60;;
5791;SDS011;2922;53.482;10.006;2023-07-30T02:28:42;7.57;;;5.53;;
5791;SDS011;2922;53.482;10.006;2023-07-30T02:31:08;6.60;;;5.10;;
5791;SDS011;2922;53.482;10.006;2023-07-30T02:33:34;6.97;;;4.93;;
5791;SDS011;2922;53.482;10.006;2023-07-30T02:35:59;11.07;;;5.67;;
5791;SDS011;2922;53.482;10.006;2023-07-30T02:38:25;7.10;;;5.70;;
5791;SDS011;2922;53.482;10.006;2023-07-30T02:40:50;7.50;;;5.50;;
5791;SDS011;2922;53.482;10.006;2023-07-30T02:43:16;6.80;;;4.90;;
5791;SDS011;2922;53.482;10.006;2023-07-30T02:45:41;6.37;;;5.03;;
5791;SDS011;2922;53.482;10.006;2023-07-30T02:48:07;7.63;;;6.13;;
5791;SDS011;2922;53.482;10.006;2023-07-30T02:50:32;10.00;;;5.73;;
5791;SDS011;2922;53.482;10.006;2023-07-30T02:52:58;6.80;;;5.57;;
5791;SDS011;2922;53.482;10.006;2023-07-30T02:55:23;6.70;;;5.50;;
5791;SDS011;2922;53.482;10.006;2023-07-30T02:57:49;9.13;;;6.07;;
5791;SDS011;2922;53.482;10.006;2023-07-30T03:00:15;8.83;;;5.47;;
5791;SDS011;2922;53.482;10.006;2023-07-30T03:02:40;5.93;;;4.93;;
5791;SDS011;2922;53.482;10.006;2023-07-30T03:05:06;8.87;;;5.60;;
5791;SDS011;2922;53.482;10.006;2023-07-30T03:07:32;7.70;;;5.57;;
5791;SDS011;2922;53.482;10.006;2023-07-30T03:09:57;9.27;;;6.30;;
5791;SDS011;2922;53.482;10.006;2023-07-30T03:12:23;10.43;;;6.27;;
5791;SDS011;2922;53.482;10.006;2023-07-30T03:14:49;11.47;;;6.43;;
5791;SDS011;2922;53.482;10.006;2023-07-30T03:17:14;7.63;;;5.87;;
5791;SDS011;2922;53.482;10.006;2023-07-30T03:19:40;8.60;;;6.30;;
5791;SDS011;2922;53.482;10.006;2023-07-30T03:22:05;18.43;;;6.40;;
5791;SDS011;2922;53.482;10.006;2023-07-30T03:24:31;9.00;;;6.03;;
5791;SDS011;2922;53.482;10.006;2023-07-30T03:26:56;10.93;;;6.43;;
5791;SDS011;2922;53.482;10.006;2023-07-30T03:29:22;12.93;;;6.10;;
5791;SDS011;2922;53.482;10.006;2023-07-30T03:31:48;7.80;;;5.37;;
5791;SDS011;2922;53.482;10.006;2023-07-30T03:34:13;13.20;;;5.80;;
5791;SDS011;2922;53.482;10.006;2023-07-30T03:36:39;12.33;;;6.53;;
5791;SDS011;2922;53.482;10.006;2023-07-30T03:39:05;8.80;;;6.00;;
5791;SDS011;2922;53.482;10.006;2023-07-30T03:41:30;11.97;;;6.17;;
5791;SDS011;2922;53.482;10.006;2023-07-30T03:43:56;17.17;;;6.67;;
5791;SDS011;2922;53.482;10.006;2023-07-30T03:46:21;14.43;;;7.33;;
5791;SDS011;2922;53.482;10.006;2023-07-30T03:48:47;15.20;;;7.17;;
5791;SDS011;2922;53.482;10.006;2023-07-30T03:51:12;10.23;;;6.37;;
5791;SDS011;2922;53.482;10.006;2023-07-30T03:53:38;9.27;;;6.10;;
5791;SDS011;2922;53.482;10.006;2023-07-30T03:56:03;14.60;;;6.03;;
5791;SDS011;2922;53.482;10.006;2023-07-30T03:58:29;9.03;;;6.40;;
5791;SDS011;2922;53.482;10.006;2023-07-30T04:00:55;13.40;;;6.13;;
5791;SDS011;2922;53.482;10.006;2023-07-30T04:03:21;7.53;;;5.67;;
5791;SDS011;2922;53.482;10.006;2023-07-30T04:05:47;18.17;;;7.23;;
5791;SDS011;2922;53.482;10.006;2023-07-30T04:08:12;11.70;;;6.20;;
5791;SDS011;2922;53.482;10.006;2023-07-30T04:10:38;11.73;;;5.43;;
5791;SDS011;2922;53.482;10.006;2023-07-30T04:13:03;11.77;;;5.40;;
5791;SDS011;2922;53.482;10.006;2023-07-30T04:15:29;13.53;;;7.03;;
5791;SDS011;2922;53.482;10.006;2023-07-30T04:17:54;11.87;;;5.23;;
5791;SDS011;2922;53.482;10.006;2023-07-30T04:20:20;11.47;;;5.67;;
5791;SDS011;2922;53.482;10.006;2023-07-30T04:22:45;10.10;;;5.00;;
5791;SDS011;2922;53.482;10.006;2023-07-30T04:25:11;10.10;;;5.40;;
5791;SDS011;2922;53.482;10.006;2023-07-30T04:27:37;11.00;;;5.17;;
5791;SDS011;2922;53.482;10.006;2023-07-30T04:30:03;16.27;;;6.10;;
5791;SDS011;2922;53.482;10.006;2023-07-30T04:32:32;10.20;;;5.97;;
5791;SDS011;2922;53.482;10.006;2023-07-30T04:34:58;10.37;;;5.40;;
5791;SDS011;2922;53.482;10.006;2023-07-30T04:37:23;9.87;;;4.70;;
5791;SDS011;2922;53.482;10.006;2023-07-30T04:39:49;12.20;;;5.33;;
5791;SDS011;2922;53.482;10.006;2023-07-30T04:42:14;11.60;;;5.17;;
5791;SDS011;2922;53.482;10.006;2023-07-30T04:44:40;11.40;;;6.00;;
5791;SDS011;2922;53.482;10.006;2023-07-30T04:47:06;12.80;;;5.97;;
5791;SDS011;2922;53.482;10.006;2023-07-30T04:49:32;12.17;;;5.73;;
5791;SDS011;2922;53.482;10.006;2023-07-30T04:51:58;11.80;;;6.60;;
5791;SDS011;2922;53.482;10.006;2023-07-30T04:54:23;8.57;;;5.77;;
5791;SDS011;2922;53.482;10.006;2023-07-30T04:56:49;10.93;;;6.47;;
5791;SDS011;2922;53.482;10.006;2023-07-30T04:59:14;20.77;;;6.80;;
5791;SDS011;2922;53.482;10.006;2023-07-30T05:01:40;10.57;;;6.10;;
5791;SDS011;2922;53.482;10.006;2023-07-30T05:04:05;9.83;;;5.90;;
5791;SDS011;2922;53.482;10.006;2023-07-30T05:06:31;12.60;;;6.03;;
5791;SDS011;2922;53.482;10.006;2023-07-30T05:08:57;17.23;;;6.23;;
5791;SDS011;2922;53.482;10.006;2023-07-30T05:11:23;8.80;;;5.90;;
5791;SDS011;2922;53.482;10.006;2023-07-30T05:13:48;12.17;;;6.20;;
5791;SDS011;2922;53.482;10.006;2023-07-30T05:16:14;13.27;;;6.40;;
5791;SDS011;2922;53.482;10.006;2023-07-30T05:18:39;13.27;;;6.57;;
5791;SDS011;2922;53.482;10.006;2023-07-30T05:21:05;16.40;;;6.10;;
5791;SDS011;2922;53.482;10.006;2023-07-30T05:23:31;16.37;;;6.20;;
5791;SDS011;2922;53.482;10.006;2023-07-30T05:25:56;12.23;;;5.97;;
5791;SDS011;2922;53.482;10.006;2023-07-30T05:28:22;11.50;;;5.60;;
5791;SDS011;2922;53.482;10.006;2023-07-30T05:30:47;12.20;;;5.20;;
5791;SDS011;2922;53.482;10.006;2023-07-30T05:33:13;11.37;;;5.20;;
5791;SDS011;2922;53.482;10.006;2023-07-30T05:35:38;16.00;;;6.55;;
5791;SDS011;2922;53.482;10.006;2023-07-30T05:38:04;10.10;;;5.60;;
5791;SDS011;2922;53.482;10.006;2023-07-30T05:40:29;14.03;;;6.17;;
5791;SDS011;2922;53.482;10.006;2023-07-30T05:42:55;17.40;;;6.13;;
5791;SDS011;2922;53.482;10.006;2023-07-30T05:45:20;8.70;;;5.33;;
5791;SDS011;2922;53.482;10.006;2023-07-30T05:47:46;15.00;;;5.53;;
5791;SDS011;2922;53.482;10.006;2023-07-30T05:50:11;13.70;;;5.60;;
5791;SDS011;2922;53.482;10.006;2023-07-30T05:52:37;10.30;;;5.33;;
5791;SDS011;2922;53.482;10.006;2023-07-30T05:55:03;17.70;;;6.03;;
5791;SDS011;2922;53.482;10.006;2023-07-30T05:57:29;9.90;;;5.20;;
5791;SDS011;2922;53.482;10.006;2023-07-30T05:59:55;15.60;;;4.77;;
5791;SDS011;2922;53.482;10.006;2023-07-30T06:02:21;19.37;;;6.37;;
5791;SDS011;2922;53.482;10.006;2023-07-30T06:04:46;12.80;;;5.07;;
5791;SDS011;2922;53.482;10.006;2023-07-30T06:07:13;13.10;;;5.00;;
5791;SDS011;2922;53.482;10.006;2023-07-30T06:09:39;16.80;;;5.70;;
5791;SDS011;2922;53.482;10.006;2023-07-30T06:12:04;9.10;;;5.40;;
5791;SDS011;2922;53.482;10.006;2023-07-30T06:14:30;13.37;;;5.30;;
5791;SDS011;2922;53.482;10.006;2023-07-30T06:16:56;17.43;;;5.90;;
5791;SDS011;2922;53.482;10.006;2023-07-30T06:19:21;15.73;;;5.10;;
5791;SDS011;2922;53.482;10.006;2023-07-30T06:21:47;12.57;;;4.83;;
5791;SDS011;2922;53.482;10.006;2023-07-30T06:24:12;18.27;;;5.13;;
5791;SDS011;2922;53.482;10.006;2023-07-30T06:26:38;8.40;;;4.53;;
5791;SDS011;2922;53.482;10.006;2023-07-30T06:29:03;23.77;;;5.23;;
5791;SDS011;2922;53.482;10.006;2023-07-30T06:31:29;12.10;;;5.03;;
5791;SDS011;2922;53.482;10.006;2023-07-30T06:33:55;20.37;;;6.17;;
5791;SDS011;2922;53.482;10.006;2023-07-30T06:36:20;21.87;;;5.97;;
5791;SDS011;2922;53.482;10.006;2023-07-30T06:38:46;15.87;;;5.70;;
5791;SDS011;2922;53.482;10.006;2023-07-30T06:41:12;16.07;;;6.07;;
5791;SDS011;2922;53.482;10.006;2023-07-30T06:43:37;10.63;;;5.90;;
5791;SDS011;2922;53.482;10.006;2023-07-30T06:46:03;20.47;;;8.20;;
5791;SDS011;2922;53.482;10.006;2023-07-30T06:48:29;17.67;;;6.67;;
5791;SDS011;2922;53.482;10.006;2023-07-30T06:50:54;13.50;;;7.20;;
5791;SDS011;2922;53.482;10.006;2023-07-30T06:53:20;12.50;;;7.10;;
5791;SDS011;2922;53.482;10.006;2023-07-30T06:55:45;17.13;;;8.10;;
5791;SDS011;2922;53.482;10.006;2023-07-30T06:58:11;13.93;;;7.40;;
5791;SDS011;2922;53.482;10.006;2023-07-30T07:00:37;21.10;;;8.87;;
5791;SDS011;2922;53.482;10.006;2023-07-30T07:03:02;18.63;;;9.07;;
5791;SDS011;2922;53.482;10.006;2023-07-30T07:05:28;23.07;;;9.70;;
5791;SDS011;2922;53.482;10.006;2023-07-30T07:07:54;24.03;;;8.83;;
5791;SDS011;2922;53.482;10.006;2023-07-30T07:10:20;13.90;;;8.57;;
5791;SDS011;2922;53.482;10.006;2023-07-30T07:12:45;16.13;;;8.60;;
5791;SDS011;2922;53.482;10.006;2023-07-30T07:15:12;21.37;;;8.90;;
5791;SDS011;2922;53.482;10.006;2023-07-30T07:17:37;14.23;;;9.33;;
5791;SDS011;2922;53.482;10.006;2023-07-30T07:20:03;16.10;;;8.33;;
5791;SDS011;2922;53.482;10.006;2023-07-30T07:22:30;15.83;;;7.97;;
5791;SDS011;2922;53.482;10.006;2023-07-30T07:24:55;18.10;;;8.60;;
5791;SDS011;2922;53.482;10.006;2023-07-30T07:27:21;15.67;;;7.77;;
5791;SDS011;2922;53.482;10.006;2023-07-30T07:29:49;18.53;;;7.70;;
5791;SDS011;2922;53.482;10.006;2023-07-30T07:32:15;11.80;;;7.40;;
5791;SDS011;2922;53.482;10.006;2023-07-30T07:34:40;20.27;;;7.53;;
5791;SDS011;2922;53.482;10.006;2023-07-30T07:37:06;14.60;;;8.00;;
5791;SDS011;2922;53.482;10.006;2023-07-30T07:39:32;18.53;;;7.27;;
5791;SDS011;2922;53.482;10.006;2023-07-30T07:41:58;22.77;;;7.97;;
5791;SDS011;2922;53.482;10.006;2023-07-30T07:44:24;17.73;;;8.30;;
5791;SDS011;2922;53.482;10.006;2023-07-30T07:46:49;18.67;;;8.20;;
5791;SDS011;2922;53.482;10.006;2023-07-30T07:49:15;17.97;;;8.63;;
5791;SDS011;2922;53.482;10.006;2023-07-30T07:51:40;16.37;;;8.23;;
5791;SDS011;2922;53.482;10.006;2023-07-30T07:54:06;14.93;;;7.67;;
5791;SDS011;2922;53.482;10.006;2023-07-30T07:56:32;14.13;;;8.23;;
5791;SDS011;2922;53.482;10.006;2023-07-30T07:58:57;11.97;;;6.93;;
5791;SDS011;2922;53.482;10.006;2023-07-30T08:01:23;16.50;;;6.70;;
5791;SDS011;2922;53.482;10.006;2023-07-30T08:03:49;10.70;;;5.53;;
5791;SDS011;2922;53.482;10.006;2023-07-30T08:06:14;13.57;;;7.47;;
5791;SDS011;2922;53.482;10.006;2023-07-30T08:08:40;13.80;;;5.10;;
5791;SDS011;2922;53.482;10.006;2023-07-30T08:11:06;14.20;;;6.33;;
5791;SDS011;2922;53.482;10.006;2023-07-30T08:13:32;11.50;;;4.73;;
5791;SDS011;2922;53.482;10.006;2023-07-30T08:15:58;14.53;;;5.13;;
5791;SDS011;2922;53.482;10.006;2023-07-30T08:18:23;14.70;;;4.60;;
5791;SDS011;2922;53.482;10.006;2023-07-30T08:20:49;10.60;;;4.37;;
5791;SDS011;2922;53.482;10.006;2023-07-30T08:23:15;10.20;;;3.73;;
5791;SDS011;2922;53.482;10.006;2023-07-30T08:25:40;10.13;;;3.87;;
5791;SDS011;2922;53.482;10.006;2023-07-30T08:28:06;12.97;;;4.47;;
5791;SDS011;2922;53.482;10.006;2023-07-30T08:30:32;8.37;;;4.00;;
5791;SDS011;2922;53.482;10.006;2023-07-30T08:32:58;12.90;;;3.83;;
5791;SDS011;2922;53.482;10.006;2023-07-30T08:35:23;13.33;;;3.77;;
5791;SDS011;2922;53.482;10.006;2023-07-30T08:37:49;13.37;;;3.57;;
5791;SDS011;2922;53.482;10.006;2023-07-30T08:40:14;14.13;;;4.00;;
5791;SDS011;2922;53.482;10.006;2023-07-30T08:42:40;7.53;;;2.70;;
5791;SDS011;2922;53.482;10.006;2023-07-30T08:45:06;13.03;;;3.83;;
5791;SDS011;2922;53.482;10.006;2023-07-30T08:47:33;8.40;;;3.03;;
5791;SDS011;2922;53.482;10.006;2023-07-30T08:50:00;10.70;;;3.00;;
5791;SDS011;2922;53.482;10.006;2023-07-30T08:52:25;9.20;;;3.03;;
5791;SDS011;2922;53.482;10.006;2023-07-30T08:54:53;15.17;;;3.23;;
5791;SDS011;2922;53.482;10.006;2023-07-30T08:57:21;14.77;;;4.00;;
5791;SDS011;2922;53.482;10.006;2023-07-30T08:59:50;8.90;;;2.83;;
5791;SDS011;2922;53.482;10.006;2023-07-30T09:02:38;10.50;;;2.90;;
5791;SDS011;2922;53.482;10.006;2023-07-30T09:05:08;12.03;;;4.60;;
5791;SDS011;2922;53.482;10.006;2023-07-30T09:07:34;10.13;;;3.00;;
5791;SDS011;2922;53.482;10.006;2023-07-30T09:09:59;6.93;;;2.63;;
5791;SDS011;2922;53.482;10.006;2023-07-30T09:12:28;15.07;;;3.10;;
5791;SDS011;2922;53.482;10.006;2023-07-30T09:14:55;9.57;;;3.53;;
5791;SDS011;2922;53.482;10.006;2023-07-30T09:17:21;10.13;;;3.30;;
5791;SDS011;2922;53.482;10.006;2023-07-30T09:19:47;14.67;;;3.20;;
5791;SDS011;2922;53.482;10.006;2023-07-30T09:22:13;8.03;;;2.60;;
5791;SDS011;2922;53.482;10.006;2023-07-30T09:24:43;11.30;;;3.00;;
5791;SDS011;2922;53.482;10.006;2023-07-30T09:27:09;10.70;;;2.83;;
5791;SDS011;2922;53.482;10.006;2023-07-30T09:29:34;7.77;;;2.67;;
5791;SDS011;2922;53.482;10.006;2023-07-30T09:32:00;13.67;;;3.17;;
5791;SDS011;2922;53.482;10.006;2023-07-30T09:34:26;13.10;;;3.00;;
5791;SDS011;2922;53.482;10.006;2023-07-30T09:36:54;6.90;;;2.33;;
5791;SDS011;2922;53.482;10.006;2023-07-30T09:39:21;9.27;;;2.70;;
5791;SDS011;2922;53.482;10.006;2023-07-30T09:41:52;6.80;;;2.50;;
5791;SDS011;2922;53.482;10.006;2023-07-30T09:44:24;10.57;;;3.00;;
5791;SDS011;2922;53.482;10.006;2023-07-30T09:46:49;9.57;;;2.23;;
5791;SDS011;2922;53.482;10.006;2023-07-30T09:49:15;9.80;;;2.70;;
5791;SDS011;2922;53.482;10.006;2023-07-30T09:51:42;9.33;;;2.73;;
5791;SDS011;2922;53.482;10.006;2023-07-30T09:54:09;8.10;;;2.53;;
5791;SDS011;2922;53.482;10.006;2023-07-30T09:56:37;8.93;;;2.30;;
5791;SDS011;2922;53.482;10.006;2023-07-30T09:59:04;10.23;;;2.93;;
5791;SDS011;2922;53.482;10.006;2023-07-30T10:01:30;12.07;;;2.97;;
5791;SDS011;2922;53.482;10.006;2023-07-30T10:03:57;9.30;;;2.50;;
5791;SDS011;2922;53.482;10.006;2023-07-30T10:06:23;17.93;;;4.10;;
5791;SDS011;2922;53.482;10.006;2023-07-30T10:08:54;11.20;;;2.90;;
5791;SDS011;2922;53.482;10.006;2023-07-30T10:11:22;8.03;;;3.20;;
5791;SDS011;2922;53.482;10.006;2023-07-30T10:13:48;11.73;;;3.43;;
5791;SDS011;2922;53.482;10.006;2023-07-30T10:16:15;8.07;;;2.40;;
5791;SDS011;2922;53.482;10.006;2023-07-30T10:18:41;8.93;;;3.20;;
5791;SDS011;2922;53.482;10.006;2023-07-30T10:21:08;11.47;;;2.90;;
5791;SDS011;2922;53.482;10.006;2023-07-30T10:23:35;8.23;;;2.73;;
5791;SDS011;2922;53.482;10.006;2023-07-30T10:26:10;9.10;;;2.40;;
5791;SDS011;2922;53.482;10.006;2023-07-30T10:28:35;9.70;;;2.77;;
5791;SDS011;2922;53.482;10.006;2023-07-30T10:31:07;9.30;;;2.40;;
5791;SDS011;2922;53.482;10.006;2023-07-30T10:36:41;7.23;;;2.67;;
5791;SDS011;2922;53.482;10.006;2023-07-30T10:39:10;6.60;;;2.00;;
5791;SDS011;2922;53.482;10.006;2023-07-30T10:41:49;8.90;;;2.10;;
5791;SDS011;2922;53.482;10.006;2023-07-30T10:46:49;8.70;;;2.10;;
5791;SDS011;2922;53.482;10.006;2023-07-30T10:49:15;5.50;;;2.03;;
5791;SDS011;2922;53.482;10.006;2023-07-30T10:51:41;9.30;;;2.17;;
5791;SDS011;2922;53.482;10.006;2023-07-30T10:54:06;10.47;;;2.30;;
5791;SDS011;2922;53.482;10.006;2023-07-30T10:56:34;7.13;;;2.20;;
5791;SDS011;2922;53.482;10.006;2023-07-30T10:59:02;5.20;;;2.00;;
5791;SDS011;2922;53.482;10.006;2023-07-30T11:01:30;10.30;;;2.80;;
5791;SDS011;2922;53.482;10.006;2023-07-30T11:03:56;6.40;;;2.97;;
5791;SDS011;2922;53.482;10.006;2023-07-30T11:06:25;5.47;;;2.30;;
5791;SDS011;2922;53.482;10.006;2023-07-30T11:08:51;10.53;;;2.67;;
5791;SDS011;2922;53.482;10.006;2023-07-30T11:11:17;5.50;;;2.20;;
5791;SDS011;2922;53.482;10.006;2023-07-30T11:13:44;10.83;;;2.17;;
5791;SDS011;2922;53.482;10.006;2023-07-30T11:16:14;11.37;;;2.60;;
5791;SDS011;2922;53.482;10.006;2023-07-30T11:18:40;10.53;;;2.53;;
5791;SDS011;2922;53.482;10.006;2023-07-30T11:21:11;7.23;;;2.50;;
5791;SDS011;2922;53.482;10.006;2023-07-30T11:23:39;5.67;;;2.37;;
5791;SDS011;2922;53.482;10.006;2023-07-30T11:26:07;6.17;;;2.03;;
5791;SDS011;2922;53.482;10.006;2023-07-30T11:28:34;11.63;;;1.77;;
5791;SDS011;2922;53.482;10.006;2023-07-30T11:31:02;10.57;;;2.90;;
5791;SDS011;2922;53.482;10.006;2023-07-30T11:33:33;5.67;;;1.83;;
5791;SDS011;2922;53.482;10.006;2023-07-30T11:36:02;16.83;;;2.23;;
5791;SDS011;2922;53.482;10.006;2023-07-30T11:38:28;4.90;;;1.90;;
5791;SDS011;2922;53.482;10.006;2023-07-30T11:40:55;9.80;;;2.63;;
5791;SDS011;2922;53.482;10.006;2023-07-30T11:43:21;6.60;;;1.80;;
5791;SDS011;2922;53.482;10.006;2023-07-30T11:45:48;3.80;;;2.10;;
5791;SDS011;2922;53.482;10.006;2023-07-30T11:48:14;5.63;;;1.87;;
5791;SDS011;2922;53.482;10.006;2023-07-30T11:50:46;3.00;;;1.47;;
5791;SDS011;2922;53.482;10.006;2023-07-30T11:53:13;4.03;;;1.60;;
5791;SDS011;2922;53.482;10.006;2023-07-30T11:55:40;4.77;;;2.00;;
5791;SDS011;2922;53.482;10.006;2023-07-30T11:58:07;9.20;;;3.00;;
5791;SDS011;2922;53.482;10.006;2023-07-30T12:00:37;6.20;;;2.07;;
5791;SDS011;2922;53.482;10.006;2023-07-30T12:03:06;7.13;;;2.80;;
5791;SDS011;2922;53.482;10.006;2023-07-30T12:05:37;6.33;;;1.87;;
5791;SDS011;2922;53.482;10.006;2023-07-30T12:08:04;7.10;;;1.87;;
5791;SDS011;2922;53.482;10.006;2023-07-30T12:10:42;5.50;;;2.00;;
5791;SDS011;2922;53.482;10.006;2023-07-30T12:13:12;9.80;;;2.17;;
5791;SDS011;2922;53.482;10.006;2023-07-30T12:15:54;9.40;;;1.93;;
5791;SDS011;2922;53.482;10.006;2023-07-30T12:18:21;6.27;;;2.03;;
5791;SDS011;2922;53.482;10.006;2023-07-30T12:20:49;7.77;;;1.67;;
5791;SDS011;2922;53.482;10.006;2023-07-30T12:23:18;5.17;;;1.63;;
5791;SDS011;2922;53.482;10.006;2023-07-30T12:25:45;6.37;;;2.27;;
5791;SDS011;2922;53.482;10.006;2023-07-30T12:28:11;7.17;;;1.70;;
5791;SDS011;2922;53.482;10.006;2023-07-30T12:30:38;4.23;;;2.00;;
5791;SDS011;2922;53.482;10.006;2023-07-30T12:33:04;5.23;;;1.90;;
5791;SDS011;2922;53.482;10.006;2023-07-30T12:35:30;6.60;;;1.90;;
5791;SDS011;2922;53.482;10.006;2023-07-30T12:37:57;6.23;;;1.50;;
5791;SDS011;2922;53.482;10.006;2023-07-30T12:40:23;6.30;;;1.83;;
5791;SDS011;2922;53.482;10.006;2023-07-30T12:42:48;7.10;;;2.20;;
5791;SDS011;2922;53.482;10.006;2023-07-30T12:45:14;7.17;;;2.20;;
5791;SDS011;2922;53.482;10.006;2023-07-30T12:47:40;7.87;;;1.80;;
5791;SDS011;2922;53.482;10.006;2023-07-30T12:50:05;6.20;;;2.20;;
5791;SDS011;2922;53.482;10.006;2023-07-30T12:52:32;4.77;;;1.80;;
5791;SDS011;2922;53.482;10.006;2023-07-30T12:54:58;10.97;;;1.80;;
5791;SDS011;2922;53.482;10.006;2023-07-30T12:57:24;6.23;;;2.33;;
5791;SDS011;2922;53.482;10.006;2023-07-30T12:59:50;6.27;;;1.60;;
5791;SDS011;2922;53.482;10.006;2023-07-30T13:02:15;4.70;;;1.90;;
5791;SDS011;2922;53.482;10.006;2023-07-30T13:04:41;7.10;;;1.70;;
5791;SDS011;2922;53.482;10.006;2023-07-30T13:07:06;7.03;;;3.30;;
5791;SDS011;2922;53.482;10.006;2023-07-30T13:09:32;9.50;;;2.40;;
5791;SDS011;2922;53.482;10.006;2023-07-30T13:11:57;2.67;;;1.70;;
5791;SDS011;2922;53.482;10.006;2023-07-30T13:14:23;8.27;;;2.93;;
5791;SDS011;2922;53.482;10.006;2023-07-30T13:16:48;5.77;;;2.10;;
5791;SDS011;2922;53.482;10.006;2023-07-30T13:19:14;2.70;;;1.10;;
5791;SDS011;2922;53.482;10.006;2023-07-30T13:21:39;3.07;;;1.30;;
5791;SDS011;2922;53.482;10.006;2023-07-30T13:24:05;11.17;;;2.03;;
5791;SDS011;2922;53.482;10.006;2023-07-30T13:26:31;6.80;;;1.60;;
5791;SDS011;2922;53.482;10.006;2023-07-30T13:28:56;5.03;;;2.30;;
5791;SDS011;2922;53.482;10.006;2023-07-30T13:31:22;4.40;;;1.60;;
5791;SDS011;2922;53.482;10.006;2023-07-30T13:33:48;4.90;;;1.63;;
5791;SDS011;2922;53.482;10.006;2023-07-30T13:36:14;5.23;;;1.50;;
5791;SDS011;2922;53.482;10.006;2023-07-30T13:38:39;4.47;;;1.67;;
5791;SDS011;2922;53.482;10.006;2023-07-30T13:41:05;4.53;;;1.30;;
5791;SDS011;2922;53.482;10.006;2023-07-30T13:43:31;4.30;;;1.43;;
5791;SDS011;2922;53.482;10.006;2023-07-30T13:45:57;1.63;;;1.20;;
5791;SDS011;2922;53.482;10.006;2023-07-30T13:48:23;2.90;;;1.20;;
5791;SDS011;2922;53.482;10.006;2023-07-30T13:50:49;3.03;;;1.10;;
5791;SDS011;2922;53.482;10.006;2023-07-30T13:53:15;2.03;;;1.20;;
5791;SDS011;2922;53.482;10.006;2023-07-30T13:55:41;4.10;;;1.20;;
5791;SDS011;2922;53.482;10.006;2023-07-30T13:58:06;2.47;;;1.27;;
5791;SDS011;2922;53.482;10.006;2023-07-30T14:00:33;2.50;;;1.33;;
5791;SDS011;2922;53.482;10.006;2023-07-30T14:02:58;2.80;;;1.40;;
5791;SDS011;2922;53.482;10.006;2023-07-30T14:05:24;7.50;;;1.30;;
5791;SDS011;2922;53.482;10.006;2023-07-30T14:07:50;4.37;;;1.27;;
5791;SDS011;2922;53.482;10.006;2023-07-30T14:10:18;4.30;;;1.63;;
5791;SDS011;2922;53.482;10.006;2023-07-30T14:12:44;2.73;;;1.40;;
5791;SDS011;2922;53.482;10.006;2023-07-30T14:15:10;3.80;;;1.53;;
5791;SDS011;2922;53.482;10.006;2023-07-30T14:17:35;2.97;;;1.60;;
5791;SDS011;2922;53.482;10.006;2023-07-30T14:20:01;2.93;;;1.23;;
5791;SDS011;2922;53.482;10.006;2023-07-30T14:22:27;4.23;;;1.00;;
5791;SDS011;2922;53.482;10.006;2023-07-30T14:24:52;2.70;;;1.30;;
5791;SDS011;2922;53.482;10.006;2023-07-30T14:27:18;2.27;;;1.40;;
5791;SDS011;2922;53.482;10.006;2023-07-30T14:29:44;3.40;;;1.30;;
5791;SDS011;2922;53.482;10.006;2023-07-30T14:32:10;3.90;;;1.47;;
5791;SDS011;2922;53.482;10.006;2023-07-30T14:34:35;4.23;;;1.50;;
5791;SDS011;2922;53.482;10.006;2023-07-30T14:37:01;3.70;;;1.70;;
5791;SDS011;2922;53.482;10.006;2023-07-30T14:39:26;6.63;;;1.73;;
5791;SDS011;2922;53.482;10.006;2023-07-30T14:41:52;5.23;;;1.77;;
5791;SDS011;2922;53.482;10.006;2023-07-30T14:44:18;3.60;;;1.60;;
5791;SDS011;2922;53.482;10.006;2023-07-30T14:46:44;4.23;;;1.50;;
5791;SDS011;2922;53.482;10.006;2023-07-30T14:49:09;8.20;;;2.87;;
5791;SDS011;2922;53.482;10.006;2023-07-30T14:51:35;3.00;;;1.33;;
5791;SDS011;2922;53.482;10.006;2023-07-30T14:54:00;3.53;;;1.57;;
5791;SDS011;2922;53.482;10.006;2023-07-30T14:56:28;2.70;;;1.40;;
5791;SDS011;2922;53.482;10.006;2023-07-30T14:58:53;7.87;;;1.60;;